Time;durP1;ratioP1;P1;durP2;ratioP2;P2;SDS_P1;SDS_P2;PMS_P1;PMS_P2;Temp;Humidity;BMP_temperature;BMP_pressure;BME280_temperature;BME280_humidity;BME280_pressure;Samples;Min_cycle;Max_cycle;Signal;HPM_P1;HPM_P2
2022/06/04 00:00:38;;;;;;;;;;;17.20;95.40;;;;;;8392073;28;19921;-73
2022/06/04 00:04:40;;;;;;;;;;;17.20;95.50;;;;;;8388180;28;19924;-73
2022/06/04 00:08:43;;;;;;;;;;;17.10;95.50;;;;;;8380230;28;19920;-73
2022/06/04 00:17:05;;;;;;;;;;;16.90;95.70;;;;;;8384408;28;19924;-73
2022/06/04 00:21:07;;;;;;;;;;;16.80;95.90;;;;;;8391873;28;19924;-73
2022/06/04 00:25:10;;;;;;;;;;;16.70;96.00;;;;;;8403470;28;19920;-73
2022/06/04 00:29:12;;;;;;;;;;;16.60;96.00;;;;;;8384130;28;19924;-73
2022/06/04 00:33:15;;;;;;;;;;;16.60;96.10;;;;;;8397540;28;20007;-73
2022/06/04 00:37:17;;;;;;;;;;;16.50;96.10;;;;;;8387003;28;19920;-73
2022/06/04 00:41:25;;;;;;;;;;;16.50;96.20;;;;;;8384759;28;19928;-73
2022/06/04 00:45:35;;;;;;;;;;;16.50;96.40;;;;;;8402916;28;19921;-73
2022/06/04 00:49:37;;;;;;;;;;;16.40;96.40;;;;;;8383913;28;19925;-73
2022/06/04 00:53:41;;;;;;;;;;;16.30;96.50;;;;;;8391128;28;20305;-73
2022/06/04 00:57:54;;;;;;;;;;;16.20;96.70;;;;;;8385874;28;19986;-73
2022/06/04 01:01:58;;;;;;;;;;;16.20;96.90;;;;;;8388218;28;19974;-73
2022/06/04 01:06:14;;;;;;;;;;;16.10;96.90;;;;;;8390627;28;19924;-73
2022/06/04 01:10:18;;;;;;;;;;;16.10;97.00;;;;;;8378287;28;20003;-73
2022/06/04 01:14:31;;;;;;;;;;;16.00;97.10;;;;;;8387840;28;19927;-73
2022/06/04 01:18:44;;;;;;;;;;;15.90;97.20;;;;;;8387301;28;19936;-73
2022/06/04 01:22:45;;;;;;;;;;;15.90;97.40;;;;;;8389329;28;19931;-73
2022/06/04 01:26:47;;;;;;;;;;;15.80;97.40;;;;;;8390821;28;20344;-73
2022/06/04 01:30:50;;;;;;;;;;;15.80;97.50;;;;;;8380384;28;19935;-73
2022/06/04 01:34:58;;;;;;;;;;;15.70;97.50;;;;;;8382631;28;19921;-73
2022/06/04 01:39:02;;;;;;;;;;;15.80;97.60;;;;;;8385791;28;19920;-73
2022/06/04 01:43:06;;;;;;;;;;;15.70;97.60;;;;;;8388145;28;19920;-73
2022/06/04 01:47:08;;;;;;;;;;;15.70;97.80;;;;;;8381929;28;19924;-73
2022/06/04 01:51:11;;;;;;;;;;;15.60;97.80;;;;;;8387991;28;20000;-73
2022/06/04 01:55:23;;;;;;;;;;;15.60;97.90;;;;;;8388294;28;19924;-73
2022/06/04 01:59:28;;;;;;;;;;;15.60;97.90;;;;;;8387742;28;19935;-73
2022/06/04 02:03:33;;;;;;;;;;;15.60;97.90;;;;;;8419040;28;19920;-73
2022/06/04 02:07:38;;;;;;;;;;;15.60;97.90;;;;;;8377790;28;19920;-73
2022/06/04 02:11:43;;;;;;;;;;;15.60;97.90;;;;;;8378633;28;20363;-73
2022/06/04 02:15:49;;;;;;;;;;;15.50;97.90;;;;;;8381972;28;20288;-73
2022/06/04 02:19:51;;;;;;;;;;;15.50;97.90;;;;;;8387297;28;20372;-73
2022/06/04 02:23:54;;;;;;;;;;;15.50;97.90;;;;;;8389144;28;20571;-73
2022/06/04 02:27:56;;;;;;;;;;;15.50;98.00;;;;;;8381741;28;19924;-73
2022/06/04 02:32:19;;;;;;;;;;;15.50;98.00;;;;;;8385077;28;19970;-73
2022/06/04 02:36:39;;;;;;;;;;;15.40;98.00;;;;;;8390919;28;20257;-73
2022/06/04 02:40:42;;;;;;;;;;;15.40;98.20;;;;;;8384598;28;20399;-73
2022/06/04 02:44:50;;;;;;;;;;;15.30;98.20;;;;;;8372111;28;19928;-73
2022/06/04 02:49:02;;;;;;;;;;;15.30;98.30;;;;;;8341262;28;19928;-73
2022/06/04 02:53:04;;;;;;;;;;;15.30;98.50;;;;;;8356172;28;20335;-73
2022/06/04 02:57:08;;;;;;;;;;;15.20;98.60;;;;;;8363671;28;20287;-73
2022/06/04 03:01:11;;;;;;;;;;;15.10;98.60;;;;;;8366362;28;19921;-73
2022/06/04 03:05:14;;;;;;;;;;;15.10;98.80;;;;;;8364079;28;19921;-73
2022/06/04 03:09:17;;;;;;;;;;;15.00;98.90;;;;;;8352472;28;20372;-73
2022/06/04 03:13:20;;;;;;;;;;;15.00;99.00;;;;;;8353920;28;19921;-73
2022/06/04 03:17:22;;;;;;;;;;;14.90;99.10;;;;;;8362657;28;20339;-73
2022/06/04 03:21:23;;;;;;;;;;;14.90;99.20;;;;;;8361396;28;19920;-73
2022/06/04 03:25:25;;;;;;;;;;;14.80;99.30;;;;;;8341796;28;19951;-73
2022/06/04 03:29:27;;;;;;;;;;;14.80;99.40;;;;;;8353939;28;19928;-73
2022/06/04 03:33:28;;;;;;;;;;;14.80;99.40;;;;;;8358497;28;19996;-73
2022/06/04 03:37:30;;;;;;;;;;;14.70;99.50;;;;;;8353388;28;19925;-73
2022/06/04 03:41:32;;;;;;;;;;;14.70;99.70;;;;;;8354025;28;19921;-73
2022/06/04 03:45:33;;;;;;;;;;;14.60;99.70;;;;;;8357389;28;20376;-73
2022/06/04 03:49:35;;;;;;;;;;;14.60;99.70;;;;;;8362984;28;20390;-73
2022/06/04 03:53:37;;;;;;;;;;;14.70;99.90;;;;;;8367201;28;20395;-73
2022/06/04 03:57:48;;;;;;;;;;;14.60;99.90;;;;;;8363338;28;20387;-72
2022/06/04 04:01:53;;;;;;;;;;;14.60;99.90;;;;;;8339602;28;20551;-73
2022/06/04 04:05:55;;;;;;;;;;;14.70;99.90;;;;;;8353961;28;19920;-73
2022/06/04 04:09:57;;;;;;;;;;;14.70;99.90;;;;;;8351583;28;19924;-73
2022/06/04 04:13:58;;;;;;;;;;;14.70;99.90;;;;;;8354403;28;19932;-73
2022/06/04 04:18:00;;;;;;;;;;;14.70;99.90;;;;;;8362444;28;19948;-73
2022/06/04 04:22:02;;;;;;;;;;;14.70;99.90;;;;;;8365395;28;19927;-73
2022/06/04 04:26:04;;;;;;;;;;;14.70;99.90;;;;;;8364310;28;19924;-73
2022/06/04 04:30:07;;;;;;;;;;;14.70;99.90;;;;;;8362936;28;19928;-72
2022/06/04 04:34:09;;;;;;;;;;;14.70;99.90;;;;;;8380046;28;19931;-72
2022/06/04 04:38:11;;;;;;;;;;;14.70;99.90;;;;;;8357397;28;19929;-73
2022/06/04 04:42:13;;;;;;;;;;;14.60;99.90;;;;;;8362812;28;19924;-73
2022/06/04 04:46:15;;;;;;;;;;;14.60;99.90;;;;;;8384162;28;19924;-73
2022/06/04 04:50:16;;;;;;;;;;;14.60;99.90;;;;;;8380274;28;20048;-73
2022/06/04 04:54:18;;;;;;;;;;;14.60;99.90;;;;;;8388404;28;19920;-73
2022/06/04 04:58:21;;;;;;;;;;;14.60;99.90;;;;;;8379361;28;19966;-73
2022/06/04 05:02:22;;;;;;;;;;;14.60;99.90;;;;;;8387893;28;19928;-73
2022/06/04 05:06:24;;;;;;;;;;;14.60;99.90;;;;;;8388162;28;20020;-72
2022/06/04 05:10:26;;;;;;;;;;;14.60;99.90;;;;;;8377656;28;19927;-72
2022/06/04 05:14:27;;;;;;;;;;;14.60;99.90;;;;;;8385715;28;19920;-72
2022/06/04 05:18:29;;;;;;;;;;;14.60;99.90;;;;;;8393632;28;19931;-72
2022/06/04 05:22:31;;;;;;;;;;;14.60;99.90;;;;;;8390097;28;19928;-73
2022/06/04 05:26:33;;;;;;;;;;;14.70;99.90;;;;;;8380942;28;19928;-72
2022/06/04 05:30:34;;;;;;;;;;;14.70;99.90;;;;;;8390629;28;19925;-73
2022/06/04 05:34:36;;;;;;;;;;;14.70;99.90;;;;;;8387923;28;19967;-73
2022/06/04 05:38:38;;;;;;;;;;;14.70;99.90;;;;;;8395060;28;19920;-73
2022/06/04 05:42:41;;;;;;;;;;;14.80;99.90;;;;;;8389776;28;19920;-72
2022/06/04 05:46:44;;;;;;;;;;;14.80;99.90;;;;;;8386558;28;20204;-73
2022/06/04 05:50:53;;;;;;;;;;;14.80;99.90;;;;;;8381465;28;20478;-73
2022/06/04 05:54:54;;;;;;;;;;;14.90;99.90;;;;;;8389588;28;19961;-72
2022/06/04 05:59:01;;;;;;;;;;;14.90;99.90;;;;;;8384302;28;20376;-72
2022/06/04 06:03:03;;;;;;;;;;;15.00;99.90;;;;;;8389177;28;19932;-72
2022/06/04 06:07:05;;;;;;;;;;;14.90;99.90;;;;;;8383456;28;19935;-73
2022/06/04 06:11:07;;;;;;;;;;;14.90;99.90;;;;;;8378389;28;20295;-72
2022/06/04 06:15:10;;;;;;;;;;;14.90;99.90;;;;;;8384950;28;19940;-72
2022/06/04 06:19:13;;;;;;;;;;;15.00;99.90;;;;;;8386702;28;20260;-73
2022/06/04 06:23:14;;;;;;;;;;;15.00;99.90;;;;;;8381020;28;20329;-73
2022/06/04 06:27:16;;;;;;;;;;;15.00;99.90;;;;;;8389842;28;19924;-72
2022/06/04 06:31:19;;;;;;;;;;;15.10;99.90;;;;;;8390255;28;19928;-73
2022/06/04 06:35:21;;;;;;;;;;;15.20;99.90;;;;;;8394642;28;19925;-72
2022/06/04 06:39:22;;;;;;;;;;;15.30;99.90;;;;;;8403086;28;19924;-72
2022/06/04 06:47:39;;;;;;;;;;;15.40;99.90;;;;;;8371968;28;19950;-72
2022/06/04 06:51:48;;;;;;;;;;;15.40;99.90;;;;;;8371486;28;19959;-72
2022/06/04 06:55:51;;;;;;;;;;;15.50;99.90;;;;;;8363791;28;19935;-73
2022/06/04 06:59:54;;;;;;;;;;;15.60;99.90;;;;;;8361402;28;19939;-73
2022/06/04 07:03:55;;;;;;;;;;;15.70;99.90;;;;;;8342442;28;21829;-73
2022/06/04 07:07:57;;;;;;;;;;;15.70;99.90;;;;;;8351572;28;19967;-73
2022/06/04 07:11:59;;;;;;;;;;;15.80;99.90;;;;;;8356837;28;19928;-73
2022/06/04 07:16:01;;;;;;;;;;;15.90;99.90;;;;;;8364860;28;19948;-72
2022/06/04 07:20:03;;;;;;;;;;;16.00;99.90;;;;;;8367444;28;19931;-73
2022/06/04 07:24:05;;;;;;;;;;;16.10;99.90;;;;;;8369267;28;19932;-72
2022/06/04 07:28:07;;;;;;;;;;;16.20;99.90;;;;;;8365608;28;19936;-72
2022/06/04 07:32:10;;;;;;;;;;;16.40;99.90;;;;;;8381927;28;19940;-73
2022/06/04 07:36:23;;;;;;;;;;;16.50;99.90;;;;;;8368017;28;20269;-72
2022/06/04 07:40:25;;;;;;;;;;;16.60;99.90;;;;;;8359096;28;19925;-72
2022/06/04 07:44:27;;;;;;;;;;;16.60;99.90;;;;;;8374617;28;19940;-72
2022/06/04 07:48:28;;;;;;;;;;;16.70;99.90;;;;;;8395512;28;19929;-72
2022/06/04 07:52:30;;;;;;;;;;;16.70;99.90;;;;;;8393253;28;20321;-72
2022/06/04 07:56:32;;;;;;;;;;;16.70;99.90;;;;;;8386614;28;20372;-73
2022/06/04 08:00:38;;;;;;;;;;;16.70;99.90;;;;;;8393773;28;19925;-73
2022/06/04 08:04:39;;;;;;;;;;;16.70;99.90;;;;;;8383091;28;20019;-72
2022/06/04 08:08:41;;;;;;;;;;;16.70;99.90;;;;;;8380024;28;20357;-73
2022/06/04 08:12:51;;;;;;;;;;;16.70;99.90;;;;;;8371779;28;19951;-73
2022/06/04 08:16:56;;;;;;;;;;;16.80;99.90;;;;;;8358416;28;19936;-73
2022/06/04 08:20:58;;;;;;;;;;;16.80;99.90;;;;;;8359514;28;20296;-73
2022/06/04 08:25:00;;;;;;;8.48;2.97;;;16.90;99.90;;;;;;8391033;28;19947;-73
2022/06/04 08:29:02;;;;;;;;;;;17.00;99.90;;;;;;8357685;28;20045;-73
2022/06/04 08:33:04;;;;;;;5.28;2.70;;;17.10;99.90;;;;;;8359024;28;19921;-73
2022/06/04 08:37:06;;;;;;;6.07;2.38;;;17.10;99.90;;;;;;8356527;28;20048;-73
2022/06/04 08:41:17;;;;;;;;;;;17.30;99.90;;;;;;8357752;28;20480;-73
2022/06/04 08:45:19;;;;;;;;;;;17.30;99.90;;;;;;8361042;28;19939;-73
2022/06/04 08:49:24;;;;;;;;;;;17.40;99.90;;;;;;8361305;28;19925;-73
2022/06/04 08:53:27;;;;;;;;;;;17.50;99.90;;;;;;8353572;28;20676;-73
2022/06/04 08:57:36;;;;;;;;;;;17.60;99.90;;;;;;8358005;28;19951;-73
2022/06/04 09:01:40;;;;;;;;;;;17.60;99.90;;;;;;8391369;28;19939;-73
2022/06/04 09:05:53;;;;;;;;;;;17.70;99.90;;;;;;8358217;28;19936;-73
2022/06/04 09:10:01;;;;;;;;;;;17.80;99.90;;;;;;8361390;28;19928;-73
2022/06/04 09:14:16;;;;;;;;;;;17.80;99.90;;;;;;8358754;28;19933;-73
2022/06/04 09:18:24;;;;;;;;;;;17.90;99.90;;;;;;8360795;28;19933;-73
2022/06/04 09:22:33;;;;;;;;;;;18.00;99.90;;;;;;8360084;28;19925;-73
2022/06/04 09:26:35;;;;;;;;;;;18.00;99.90;;;;;;8355324;28;19931;-73
2022/06/04 09:30:39;;;;;;;;;;;18.00;99.90;;;;;;8361676;28;19924;-73
2022/06/04 09:34:51;;;;;;;;;;;18.10;99.90;;;;;;8357243;28;19944;-73
2022/06/04 09:38:54;;;;;;;;;;;18.10;99.90;;;;;;8354668;28;19924;-72
2022/06/04 09:43:12;;;;;;;;;;;18.20;99.90;;;;;;8369118;28;19921;-73
2022/06/04 09:47:38;;;;;;;;;;;18.30;99.90;;;;;;8355144;28;20003;-73
2022/06/04 09:51:41;;;;;;;;;;;18.40;99.90;;;;;;8354717;28;19925;-73
2022/06/04 09:55:45;;;;;;;;;;;18.40;99.90;;;;;;8358705;28;20331;-73
2022/06/04 09:59:53;;;;;;;;;;;18.50;99.90;;;;;;8366786;28;19925;-73
2022/06/04 10:03:59;;;;;;;;;;;18.60;99.90;;;;;;8354996;28;19928;-73
2022/06/04 10:08:10;;;;;;;;;;;18.70;99.90;;;;;;8352967;28;19932;-73
2022/06/04 10:12:16;;;;;;;;;;;18.80;99.90;;;;;;8370102;28;19928;-73
2022/06/04 10:16:20;;;;;;;;;;;18.90;99.90;;;;;;8376215;28;19935;-73
2022/06/04 10:20:23;;;;;;;;;;;19.00;99.90;;;;;;8361209;28;19989;-73
2022/06/04 10:24:30;;;;;;;;;;;19.00;99.90;;;;;;8363166;28;19935;-73
2022/06/04 10:28:50;;;;;;;;;;;19.10;99.90;;;;;;8348939;28;19945;-73
2022/06/04 10:33:01;;;;;;;;;;;19.20;99.90;;;;;;8353695;28;19921;-73
2022/06/04 10:37:19;;;;;;;;;;;19.30;99.90;;;;;;8351434;28;19920;-73
2022/06/04 10:42:00;;;;;;;;;;;19.30;99.90;;;;;;8384810;28;20027;-73
2022/06/04 10:46:06;;;;;;;;;;;19.40;99.90;;;;;;8308698;28;19940;-73
2022/06/04 10:50:31;;;;;;;;;;;19.40;99.90;;;;;;8331796;28;19928;-73
2022/06/04 10:54:41;;;;;;;;;;;19.40;99.90;;;;;;8352219;28;19926;-73
2022/06/04 10:58:47;;;;;;;;;;;19.50;99.90;;;;;;8352950;28;19925;-73
2022/06/04 11:03:04;;;;;;;;;;;19.60;99.90;;;;;;8384199;28;20338;-73
2022/06/04 11:07:12;;;;;;;;;;;19.70;99.90;;;;;;8358272;28;19921;-73
2022/06/04 11:11:20;;;;;;;;;;;19.80;99.90;;;;;;8356894;28;24089;-73
2022/06/04 11:15:41;;;;;;;;;;;20.00;99.90;;;;;;8355629;28;19927;-73
2022/06/04 11:19:54;;;;;;;;;;;20.10;99.90;;;;;;8357164;28;25214;-73
2022/06/04 11:24:00;;;;;;;;;;;20.20;99.90;;;;;;8364810;28;19931;-73
2022/06/04 11:28:05;;;;;;;;;;;20.30;99.90;;;;;;8401029;28;19934;-71
2022/06/04 11:32:09;;;;;;;;;;;20.40;99.90;;;;;;8359133;28;20038;-71
2022/06/04 11:36:28;;;;;;;;;;;20.40;99.90;;;;;;8393742;28;19928;-71
2022/06/04 11:40:33;;;;;;;;;;;20.50;99.90;;;;;;8367218;28;19935;-71
2022/06/04 11:44:50;;;;;;;;;;;20.60;99.90;;;;;;8361372;28;20335;-71
2022/06/04 11:49:03;;;;;;;;;;;20.70;99.90;;;;;;8394699;28;19946;-71
2022/06/04 11:53:14;;;;;;;;;;;20.80;99.90;;;;;;8358146;28;19928;-71
2022/06/04 11:57:16;;;;;;;;;;;20.90;99.90;;;;;;8358629;28;19924;-71
2022/06/04 12:01:23;;;;;;;;;;;21.00;99.90;;;;;;8361629;28;19929;-71
2022/06/04 12:05:39;;;;;;;;;;;21.10;99.90;;;;;;8360423;28;19921;-72
2022/06/04 12:09:45;;;;;;;;;;;21.20;99.90;;;;;;8390136;28;19921;-71
2022/06/04 12:14:02;;;;;;;;;;;21.20;99.90;;;;;;8357073;28;20368;-72
2022/06/04 12:18:22;;;;;;;;;;;21.30;99.90;;;;;;8355425;28;19928;-71
2022/06/04 12:26:48;;;;;;;;;;;21.50;99.90;;;;;;8361975;28;19920;-72
2022/06/04 12:31:00;;;;;;;;;;;21.50;99.90;;;;;;8365772;28;25116;-71
2022/06/04 12:35:11;;;;;;;;;;;21.50;99.90;;;;;;8374981;28;19966;-72
2022/06/04 12:39:19;;;;;;;;;;;21.50;99.90;;;;;;8357618;28;19928;-72
2022/06/04 12:43:31;;;;;;;;;;;21.60;99.90;;;;;;8357821;28;19920;-71
2022/06/04 12:47:36;;;;;;;4.90;3.00;;;21.60;99.90;;;;;;8357331;28;19924;-71
2022/06/04 12:51:47;;;;;;;;;;;21.50;99.90;;;;;;8360870;28;19928;-71
2022/06/04 12:55:50;;;;;;;;;;;21.50;99.90;;;;;;8356437;28;25067;-72
2022/06/04 13:04:47;;;;;;;;;;;21.70;99.90;;;;;;8357056;28;19939;-71
2022/06/04 13:08:58;;;;;;;;;;;21.70;99.90;;;;;;8357910;28;25071;-71
2022/06/04 13:13:12;;;;;;;;;;;21.80;99.90;;;;;;8358214;28;20352;-71
2022/06/04 13:17:28;;;;;;;;;;;21.80;99.90;;;;;;8356612;28;19940;-71
2022/06/04 13:21:31;;;;;;;;;;;21.90;99.90;;;;;;8354761;28;20257;-71
2022/06/04 13:25:36;;;;;;;;;;;22.10;99.90;;;;;;8353307;28;20284;-71
2022/06/04 13:29:38;;;;;;;;;;;22.00;99.90;;;;;;8358354;28;20285;-73
2022/06/04 13:33:40;;;;;;;;;;;22.00;99.90;;;;;;8357261;28;19982;-73
2022/06/04 13:37:42;;;;;;;;;;;22.00;99.90;;;;;;8387966;28;20386;-73
2022/06/04 13:42:00;;;;;;;;;;;22.00;99.90;;;;;;8360441;28;20369;-73
2022/06/04 13:46:17;;;;;;;;;;;22.10;99.90;;;;;;8356372;28;19921;-73
2022/06/04 13:50:20;;;;;;;;;;;22.20;99.90;;;;;;8373976;28;19924;-73
2022/06/04 13:54:33;;;;;;;;;;;22.20;99.90;;;;;;8354880;28;19932;-73
2022/06/04 13:58:44;;;;;;;;;;;22.20;99.90;;;;;;8358306;28;25068;-73
2022/06/04 14:02:48;;;;;;;;;;;22.30;99.90;;;;;;8374550;28;19920;-73
2022/06/04 14:06:52;;;;;;;;;;;22.30;99.90;;;;;;8352130;28;19921;-74
2022/06/04 14:11:03;;;;;;;;;;;22.40;99.90;;;;;;8354098;28;19925;-74
2022/06/04 14:15:10;;;;;;;;;;;22.50;99.90;;;;;;8352519;28;19921;-73
2022/06/04 14:19:18;;;;;;;;;;;22.60;99.90;;;;;;8356932;28;19920;-73
2022/06/04 14:23:35;;;;;;;;;;;22.70;99.90;;;;;;8358698;28;25126;-73
2022/06/04 14:27:37;;;;;;;;;;;22.80;99.90;;;;;;8352438;28;19924;-73
2022/06/04 14:31:58;;;;;;;;;;;22.90;99.90;;;;;;8360317;28;19945;-73
2022/06/04 14:36:06;;;;;;;;;;;23.00;99.90;;;;;;8353448;28;19956;-73
2022/06/04 14:40:08;;;;;;;;;;;23.10;99.90;;;;;;8350898;28;20419;-73
2022/06/04 14:44:28;;;;;;;;;;;23.20;99.90;;;;;;8355316;28;25070;-73
2022/06/04 14:48:41;;;;;;;;;;;23.30;99.90;;;;;;8350737;28;25117;-73
2022/06/04 14:52:47;;;;;;;;;;;23.50;99.90;;;;;;8363026;28;20249;-73
2022/06/04 14:57:07;;;;;;;;;;;23.50;99.90;;;;;;8362419;28;25058;-74
2022/06/04 15:01:28;;;;;;;;;;;23.60;99.90;;;;;;8363221;28;24147;-74
2022/06/04 15:05:48;;;;;;;;;;;23.60;99.90;;;;;;8360833;28;19929;-74
2022/06/04 15:09:50;;;;;;;;;;;23.50;99.90;;;;;;8358577;28;19948;-74
2022/06/04 15:13:51;;;;;;;;;;;23.50;99.90;;;;;;8361656;28;19928;-74
2022/06/04 15:18:02;;;;;;;;;;;23.50;99.90;;;;;;8360142;28;20387;-74
2022/06/04 15:22:16;;;;;;;;;;;23.60;99.90;;;;;;8359166;28;24135;-74
2022/06/04 15:26:24;;;;;;;;;;;23.60;99.90;;;;;;8358347;28;19924;-74
2022/06/04 15:34:55;;;;;;;;;;;23.70;99.90;;;;;;8361078;28;19925;-73
2022/06/04 15:39:03;;;;;;;;;;;23.70;99.90;;;;;;8360686;28;20284;-74
2022/06/04 15:43:07;;;;;;;;;;;23.70;99.90;;;;;;8359795;28;19925;-74
2022/06/04 15:47:11;;;;;;;;;;;23.80;99.90;;;;;;8360570;28;20023;-74
2022/06/04 15:55:42;;;;;;;;;;;24.00;99.90;;;;;;8360565;28;24076;-72
2022/06/04 15:59:53;;;;;;;;;;;24.30;99.90;;;;;;8360165;28;19921;-72
2022/06/04 16:03:58;;;;;;;;;;;24.60;99.90;;;;;;8359879;28;25065;-72
2022/06/04 16:08:00;;;;;;;;;;;25.10;99.90;;;;;;8360006;28;19971;-72
2022/06/04 16:12:34;;;;;;;;;;;25.60;99.90;;;;;;8356288;28;19920;-72
2022/06/04 16:16:41;;;;;;;;;;;26.00;99.90;;;;;;8359790;28;25058;-73
2022/06/04 16:20:48;;;;;;;;;;;26.40;99.90;;;;;;8361687;28;20446;-72
2022/06/04 16:25:10;;;;;;;;;;;26.90;99.90;;;;;;8374666;28;19931;-72
2022/06/04 16:29:26;;;;;;;;;;;27.20;99.90;;;;;;8352503;28;19928;-72
2022/06/04 16:33:28;;;;;;;;;;;27.50;99.90;;;;;;8358327;28;19927;-72
2022/06/04 16:37:34;;;;;;;;;;;27.70;99.90;;;;;;8359427;28;19928;-73
2022/06/04 16:41:55;;;;;;;;;;;27.90;99.90;;;;;;8362202;28;19928;-72
2022/06/04 16:45:59;;;;;;;;;;;28.00;99.90;;;;;;8373488;28;19925;-72
2022/06/04 16:50:03;;;;;;;;;;;28.10;99.90;;;;;;8363739;28;19943;-72
2022/06/04 16:54:05;;;;;;;;;;;28.10;99.90;;;;;;8373136;28;19936;-72
2022/06/04 16:58:07;;;;;;;;;;;28.20;99.90;;;;;;8360201;28;19920;-72
2022/06/04 17:02:28;;;;;;;;;;;28.20;99.90;;;;;;8359209;28;25066;-72
2022/06/04 17:06:30;;;;;;;;;;;28.30;99.90;;;;;;8357123;28;19925;-73
2022/06/04 17:10:41;;;;;;;;;;;28.30;99.90;;;;;;8355053;28;19966;-72
2022/06/04 17:15:08;;;;;;;;;;;28.40;99.90;;;;;;8356372;28;25064;-72
2022/06/04 17:19:22;;;;;;;;;;;28.40;99.90;;;;;;8356145;28;24070;-73
2022/06/04 17:23:29;;;;;;;;;;;28.30;99.90;;;;;;8359382;28;19931;-73
2022/06/04 17:27:33;;;;;;;;;;;28.20;99.90;;;;;;8355284;28;19920;-72
2022/06/04 17:31:43;;;;;;;;;;;27.90;99.90;;;;;;8358090;28;19929;-72
2022/06/04 17:35:48;;;;;;;;;;;27.70;99.90;;;;;;8356001;28;19928;-72
2022/06/04 17:40:02;;;;;;;;;;;27.40;99.90;;;;;;8360807;28;19974;-72
2022/06/04 17:44:04;;;;;;;;;;;27.00;99.90;;;;;;8353363;28;20368;-72
2022/06/04 17:48:07;;;;;;;;;;;26.70;99.90;;;;;;8358684;28;19924;-72
2022/06/04 17:52:11;;;;;;;;;;;26.50;99.90;;;;;;8361341;28;19920;-72
2022/06/04 17:56:13;;;;;;;;;;;26.30;99.90;;;;;;8355951;28;20281;-73
2022/06/04 18:00:16;;;;;;;;;;;26.30;99.90;;;;;;8353743;28;19921;-72
2022/06/04 18:04:18;;;;;;;;;;;26.10;99.90;;;;;;8356143;28;19934;-72
2022/06/04 18:08:19;;;;;;;;;;;25.90;99.90;;;;;;8357576;28;20203;-72
2022/06/04 18:12:21;;;;;;;;;;;25.70;99.90;;;;;;8359472;28;19921;-72
2022/06/04 18:16:23;;;;;;;;;;;25.70;99.90;;;;;;8353366;28;19921;-72
2022/06/04 18:20:24;;;;;;;;;;;25.50;99.90;;;;;;8352843;28;20019;-72
2022/06/04 18:24:26;;;;;;;;;;;25.40;99.90;;;;;;8356112;28;19931;-72
2022/06/04 18:28:28;;;;;;;;;;;25.30;99.90;;;;;;8367790;28;19928;-72
2022/06/04 18:32:30;;;;;;;;;;;25.10;99.90;;;;;;8363942;28;19925;-72
2022/06/04 18:36:33;;;;;;;;;;;25.00;99.90;;;;;;8363061;28;19924;-72
2022/06/04 18:40:39;;;;;;;;;;;24.90;99.90;;;;;;8367657;28;19927;-71
2022/06/04 18:57:41;;;;;;;;;;;24.50;99.90;;;;;;8324931;28;19929;-72
2022/06/04 19:01:43;;;;;;;;;;;24.40;99.90;;;;;;8332202;28;19924;-72
2022/06/04 19:05:45;;;;;;;;;;;24.30;99.80;;;;;;8335184;28;19921;-72
2022/06/04 19:09:53;;;;;;;;;;;24.20;99.70;;;;;;8346239;28;20297;-72
2022/06/04 19:13:54;;;;;;;;;;;24.00;99.60;;;;;;8328672;28;19921;-72
2022/06/04 19:17:56;;;;;;;;;;;23.90;99.50;;;;;;8328631;28;20360;-74
2022/06/04 19:26:19;;;;;;;;;;;23.70;99.50;;;;;;8327366;28;20019;-74
2022/06/04 19:30:21;;;;;;;;;;;23.50;99.40;;;;;;8325041;28;20436;-73
2022/06/04 19:34:23;;;;;;;;;;;23.50;99.40;;;;;;8322953;28;19920;-73
2022/06/04 19:38:25;;;;;;;;;;;23.30;99.30;;;;;;8323757;28;20364;-73
2022/06/04 19:42:26;;;;;;;;;;;23.20;99.30;;;;;;8329083;28;20103;-73
2022/06/04 19:46:28;;;;;;;;;;;23.20;99.30;;;;;;8320611;28;20311;-73
2022/06/04 19:50:30;;;;;;;;;;;23.10;99.20;;;;;;8325086;28;19967;-73
2022/06/04 19:58:53;;;;;;;;;;;22.80;99.10;;;;;;8321751;28;19931;-74
2022/06/04 20:02:54;;;;;;;;;;;22.80;99.10;;;;;;8322450;28;19962;-74
2022/06/04 20:06:58;;;;;;;;;;;22.70;99.10;;;;;;8355876;28;19925;-73
2022/06/04 20:11:00;;;;;;;;;;;22.60;99.10;;;;;;8321540;28;19933;-73
2022/06/04 20:15:02;;;;;;;;;;;22.50;99.00;;;;;;8323873;28;20395;-74
2022/06/04 20:19:04;;;;;;;;;;;22.50;99.00;;;;;;8324514;28;19928;-73
2022/06/04 20:23:09;;;;;;;;;;;22.40;99.00;;;;;;8319739;28;20069;-74
2022/06/04 20:27:12;;;;;;;;;;;22.40;99.00;;;;;;8350012;28;20142;-73
2022/06/04 20:31:15;;;;;;;;;;;22.30;99.00;;;;;;8326783;28;19967;-71
2022/06/04 20:35:19;;;;;;;;;;;22.20;99.00;;;;;;8332027;28;19921;-71
2022/06/04 20:39:21;;;;;;;;;;;22.20;99.00;;;;;;8363820;28;19920;-71
2022/06/04 20:43:23;;;;;;;;;;;22.10;99.10;;;;;;8342561;28;19924;-71
2022/06/04 20:47:24;;;;;;;;;;;22.00;99.10;;;;;;8359910;28;20006;-71
2022/06/04 20:51:27;;;;;;;;;;;21.90;99.20;;;;;;8388218;27;19927;-71
2022/06/04 20:55:28;;;;;;;;;;;21.80;99.20;;;;;;8355317;28;19936;-71
2022/06/04 20:59:30;;;;;;;;;;;21.80;99.30;;;;;;8371717;28;19925;-71
2022/06/04 21:03:32;;;;;;;;;;;21.70;99.30;;;;;;8368417;28;19929;-71
2022/06/04 21:07:34;;;;;;;;;;;21.60;99.40;;;;;;8365221;28;20285;-71
2022/06/04 21:11:36;;;;;;;;;;;21.50;99.50;;;;;;8371304;28;19921;-72
2022/06/04 21:15:37;;;;;;;;;;;21.40;99.50;;;;;;8369734;28;20005;-71
2022/06/04 21:19:39;;;;;;;;;;;21.30;99.50;;;;;;8368710;28;20297;-71
2022/06/04 21:23:42;;;;;;;;;;;21.30;99.60;;;;;;8369834;28;19924;-71
2022/06/04 21:27:44;;;;;;;;;;;21.20;99.60;;;;;;8381378;28;19932;-71
2022/06/04 21:31:47;;;;;;;;;;;21.10;99.60;;;;;;8380779;28;20368;-71
2022/06/04 21:40:15;;;;;;;;;;;20.90;99.70;;;;;;8374007;28;19928;-71
2022/06/04 21:44:18;;;;;;;;;;;20.80;99.70;;;;;;8372708;28;19924;-71
2022/06/04 21:48:19;;;;;;;;;;;20.70;99.70;;;;;;8380689;28;20390;-71
2022/06/04 21:52:21;;;;;;;;;;;20.60;99.70;;;;;;8386530;28;19920;-71
2022/06/04 21:56:23;;;;;;;;;;;20.60;99.80;;;;;;8378694;28;19921;-72
2022/06/04 22:00:28;;;;;;;;;;;20.50;99.80;;;;;;8382939;28;19921;-72
2022/06/04 22:04:29;;;;;;;;;;;20.40;99.80;;;;;;8381625;28;19924;-71
2022/06/04 22:08:31;;;;;;;;;;;20.40;99.80;;;;;;8386796;28;20365;-71
2022/06/04 22:12:33;;;;;;;;;;;20.30;99.80;;;;;;8384735;28;19924;-71
2022/06/04 22:16:35;;;;;;;;;;;20.20;99.80;;;;;;8382425;28;19928;-72
2022/06/04 22:20:36;;;;;;;;;;;20.20;99.90;;;;;;8387539;28;19929;-71
2022/06/04 22:24:39;;;;;;;;;;;20.10;99.90;;;;;;8386359;28;20199;-72
2022/06/04 22:28:41;;;;;;;;;;;20.00;99.90;;;;;;8386314;28;19920;-71
2022/06/04 22:32:43;;;;;;;;;;;19.90;99.90;;;;;;8391850;28;19935;-71
2022/06/04 22:36:45;;;;;;;;;;;19.90;99.90;;;;;;8382241;28;19921;-71
2022/06/04 22:40:50;;;;;;;;;;;19.80;99.90;;;;;;8420520;28;20391;-71
2022/06/04 22:44:52;;;;;;;5.97;3.63;;;19.70;99.90;;;;;;8390011;28;20473;-71
2022/06/04 22:48:55;;;;;;;6.07;3.70;;;19.70;99.90;;;;;;8384930;28;20048;-73
2022/06/04 22:52:57;;;;;;;6.57;3.90;;;19.70;99.90;;;;;;8388796;28;20059;-73
2022/06/04 22:57:01;;;;;;;7.43;4.18;;;19.60;99.90;;;;;;8386890;28;20045;-73
2022/06/04 23:01:05;;;;;;;7.75;4.10;;;19.50;99.90;;;;;;8383367;28;20056;-73
2022/06/04 23:05:07;;;;;;;8.20;3.80;;;19.40;99.90;;;;;;8384179;28;20443;-73
2022/06/04 23:09:10;;;;;;;;;;;19.30;99.90;;;;;;8371745;28;19928;-74
2022/06/04 23:20:42;;;;;;;;;;;19.30;99.90;;;;;;8395800;28;20276;-73
2022/06/04 23:22:06;;;;;;;;;;;19.20;99.90;;;;;;8407229;28;20696;-74
2022/06/04 23:26:10;;;;;;;;;;;19.10;99.90;;;;;;8402473;28;20322;-73
2022/06/04 23:30:12;;;;;;;;;;;19.10;99.90;;;;;;8394467;28;19931;-73
2022/06/04 23:34:14;;;;;;;;;;;19.00;99.90;;;;;;8389419;28;19920;-73
2022/06/04 23:38:16;;;;;;;;;;;19.00;99.90;;;;;;8389807;28;20360;-73
2022/06/04 23:42:18;;;;;;;;;;;19.00;99.90;;;;;;8389002;28;19924;-73
2022/06/04 23:46:20;;;;;;;;;;;18.90;99.90;;;;;;8421120;28;19924;-72
2022/06/04 23:50:21;;;;;;;;;;;18.90;99.90;;;;;;8389930;28;19920;-73
2022/06/04 23:54:23;;;;;;;;;;;18.80;99.90;;;;;;8393451;28;19931;-73
2022/06/04 23:58:25;;;;;;;;;;;18.70;99.90;;;;;;8388852;28;19928;-73
